Time;durP1;ratioP1;P1;durP2;ratioP2;P2;SDS_P1;SDS_P2;PMS_P1;PMS_P2;Temp;Humidity;BMP_temperature;BMP_pressure;BME280_temperature;BME280_humidity;BME280_pressure;Samples;Min_cycle;Max_cycle;Signal;HPM_P1;HPM_P2
2022/11/22 00:02:12;;;;;;;5.95;3.92;;;12.40;77.40;;;;;;4992701;28;20042;-78
2022/11/22 00:04:37;;;;;;;6.13;3.85;;;12.40;77.50;;;;;;4975496;28;20105;-78
2022/11/22 00:07:03;;;;;;;6.70;4.25;;;12.40;77.50;;;;;;4992594;28;20027;-78
2022/11/22 00:09:28;;;;;;;6.00;3.85;;;12.40;77.50;;;;;;4975119;28;20033;-76
2022/11/22 00:11:54;;;;;;;6.18;3.88;;;12.40;77.50;;;;;;4992622;28;20117;-77
2022/11/22 00:14:19;;;;;;;6.22;3.95;;;12.40;77.50;;;;;;4992743;28;20023;-77
2022/11/22 00:16:45;;;;;;;5.40;3.75;;;12.30;77.40;;;;;;4975334;28;20022;-78
2022/11/22 00:19:10;;;;;;;5.82;4.07;;;12.40;77.50;;;;;;4975008;28;20478;-77
2022/11/22 00:21:36;;;;;;;6.28;3.92;;;12.40;77.50;;;;;;4974781;28;20057;-77
2022/11/22 00:24:01;;;;;;;6.15;4.18;;;12.40;77.50;;;;;;4975146;28;20022;-78
2022/11/22 00:26:27;;;;;;;6.45;3.83;;;12.40;77.40;;;;;;4975248;28;20022;-77
2022/11/22 00:28:52;;;;;;;5.85;3.63;;;12.30;77.40;;;;;;4975129;28;20022;-78
2022/11/22 00:31:18;;;;;;;6.13;3.97;;;12.30;77.40;;;;;;4974787;28;20030;-77
2022/11/22 00:33:44;;;;;;;6.53;4.18;;;12.40;77.50;;;;;;4975127;28;20018;-77
2022/11/22 00:36:09;;;;;;;6.30;3.72;;;12.40;77.50;;;;;;4992375;28;20022;-78
2022/11/22 00:38:35;;;;;;;5.55;3.63;;;12.30;77.40;;;;;;4996382;28;20053;-79
2022/11/22 00:41:00;;;;;;;5.85;3.97;;;12.30;77.40;;;;;;4996038;28;20031;-79
2022/11/22 00:43:26;;;;;;;6.07;4.10;;;12.40;77.40;;;;;;4996291;28;20102;-77
2022/11/22 00:45:51;;;;;;;7.85;4.05;;;12.40;77.40;;;;;;4978770;28;20109;-77
2022/11/22 00:48:17;;;;;;;5.93;3.80;;;12.40;77.30;;;;;;4978715;28;20034;-77
2022/11/22 00:50:42;;;;;;;5.70;3.60;;;12.40;77.20;;;;;;4978369;28;20026;-77
2022/11/22 00:53:08;;;;;;;6.35;4.00;;;12.40;77.10;;;;;;4996037;28;20062;-77
2022/11/22 00:55:33;;;;;;;5.78;3.67;;;12.40;77.10;;;;;;4978639;28;20031;-77
2022/11/22 00:57:59;;;;;;;6.18;3.92;;;12.50;77.10;;;;;;4996243;28;20030;-77
2022/11/22 01:00:25;;;;;;;5.78;3.67;;;12.40;77.00;;;;;;4978359;28;20486;-78
2022/11/22 01:02:50;;;;;;;5.88;3.83;;;12.40;77.00;;;;;;4978620;28;20117;-77
2022/11/22 01:05:16;;;;;;;6.03;3.85;;;12.40;77.10;;;;;;4995928;28;20068;-78
2022/11/22 01:07:43;;;;;;;5.63;3.40;;;12.50;77.10;;;;;;4995979;28;20018;-78
2022/11/22 01:10:09;;;;;;;5.55;3.40;;;12.40;77.20;;;;;;4978657;28;20042;-80
2022/11/22 01:12:35;;;;;;;5.50;3.45;;;12.40;77.20;;;;;;4978521;28;20027;-78
2022/11/22 01:15:01;;;;;;;5.75;3.90;;;12.40;77.30;;;;;;4978230;28;20057;-79
2022/11/22 01:17:26;;;;;;;5.47;3.47;;;12.40;77.40;;;;;;4978199;28;20056;-77
2022/11/22 01:19:52;;;;;;;5.28;3.35;;;12.40;77.40;;;;;;4976220;28;20036;-79
2022/11/22 01:22:17;;;;;;;5.28;3.50;;;12.30;77.40;;;;;;4995508;28;20064;-79
2022/11/22 01:24:43;;;;;;;5.72;3.80;;;12.30;77.40;;;;;;4995681;28;20478;-79
2022/11/22 01:27:08;;;;;;;5.63;3.42;;;12.30;77.40;;;;;;4978212;28;20044;-78
2022/11/22 01:29:34;;;;;;;5.68;3.75;;;12.30;77.50;;;;;;4977557;28;20403;-76
2022/11/22 01:32:00;;;;;;;5.32;3.38;;;12.30;77.50;;;;;;4977936;28;20018;-78
2022/11/22 01:34:25;;;;;;;5.45;3.50;;;12.30;77.50;;;;;;4995405;28;20033;-79
2022/11/22 01:36:51;;;;;;;5.40;3.40;;;12.30;77.50;;;;;;4978130;28;20065;-79
2022/11/22 01:39:16;;;;;;;5.30;3.30;;;12.30;77.50;;;;;;4995693;28;20541;-79
2022/11/22 01:41:42;;;;;;;5.65;3.30;;;12.30;77.50;;;;;;4997806;28;20471;-79
2022/11/22 01:44:18;;;;;;;5.78;3.60;;;12.30;77.50;;;;;;4999810;28;20038;-79
2022/11/22 01:46:44;;;;;;;6.07;3.80;;;12.30;77.60;;;;;;4981201;28;20109;-79
2022/11/22 01:49:23;;;;;;;5.82;3.78;;;12.30;77.60;;;;;;4997818;28;20105;-81
2022/11/22 01:51:52;;;;;;;5.40;3.10;;;12.30;77.50;;;;;;4981158;28;20057;-80
2022/11/22 01:54:23;;;;;;;5.05;3.15;;;12.30;77.50;;;;;;4998443;28;20033;-78
2022/11/22 01:56:53;;;;;;;5.50;3.08;;;12.30;77.50;;;;;;4980181;28;20030;-80
2022/11/22 01:59:23;;;;;;;4.82;3.22;;;12.30;77.60;;;;;;4997580;28;20030;-78
2022/11/22 02:01:49;;;;;;;5.90;3.65;;;12.30;77.60;;;;;;4997295;28;20034;-78
2022/11/22 02:04:17;;;;;;;5.45;3.50;;;12.30;77.60;;;;;;4979026;28;20383;-81
2022/11/22 02:07:04;;;;;;;5.22;3.22;;;12.30;77.60;;;;;;4996596;28;20545;-77
2022/11/22 02:09:31;;;;;;;5.68;3.50;;;12.20;77.50;;;;;;4996190;28;20457;-80
2022/11/22 02:12:00;;;;;;;5.68;3.28;;;12.30;77.60;;;;;;4996325;28;20497;-81
2022/11/22 02:14:27;;;;;;;4.97;3.47;;;12.30;77.80;;;;;;4995979;28;20130;-78
2022/11/22 02:16:52;;;;;;;5.15;3.22;;;12.30;77.70;;;;;;4979787;28;20092;-80
2022/11/22 02:19:42;;;;;;;5.07;3.13;;;12.30;77.60;;;;;;4995314;28;20450;-78
2022/11/22 02:22:45;;;;;;;8.02;3.92;;;12.30;77.60;;;;;;4977269;28;20081;-79
2022/11/22 02:25:10;;;;;;;4.90;3.25;;;12.30;77.80;;;;;;4995119;28;20029;-81
2022/11/22 02:27:36;;;;;;;5.22;3.17;;;12.30;77.60;;;;;;4977247;28;20113;-79
2022/11/22 02:30:02;;;;;;;5.55;3.35;;;12.30;77.60;;;;;;4994579;28;20031;-80
2022/11/22 02:32:27;;;;;;;4.65;3.10;;;12.30;77.50;;;;;;4976960;28;20494;-78
2022/11/22 02:34:53;;;;;;;5.30;3.05;;;12.30;77.40;;;;;;4995314;28;20026;-81
2022/11/22 02:37:24;;;;;;;5.28;3.45;;;12.30;77.40;;;;;;4995636;28;20486;-81
2022/11/22 02:39:55;;;;;;;5.35;3.00;;;12.30;77.30;;;;;;4975272;28;20505;-81
2022/11/22 02:42:21;;;;;;;5.70;3.33;;;12.40;77.30;;;;;;4966521;28;20030;-79
2022/11/22 02:44:47;;;;;;;4.78;3.10;;;12.40;77.30;;;;;;4971583;28;20077;-80
2022/11/22 02:47:13;;;;;;;4.90;2.90;;;12.40;77.30;;;;;;4977355;28;20015;-80
2022/11/22 02:49:39;;;;;;;4.82;3.10;;;12.40;77.20;;;;;;4976803;28;20383;-80
2022/11/22 02:52:05;;;;;;;4.57;2.97;;;12.40;77.30;;;;;;4994062;28;20033;-78
2022/11/22 02:54:30;;;;;;;5.03;3.00;;;12.50;77.30;;;;;;4976591;28;20041;-78
2022/11/22 02:56:56;;;;;;;5.68;2.90;;;12.30;77.30;;;;;;4976783;28;20026;-78
2022/11/22 02:59:21;;;;;;;5.53;3.35;;;12.30;77.40;;;;;;4993973;28;20034;-80
2022/11/22 03:01:48;;;;;;;5.05;3.05;;;12.40;77.50;;;;;;4993648;28;20479;-80
2022/11/22 03:04:23;;;;;;;5.18;3.10;;;12.30;77.50;;;;;;4977003;28;20038;-79
2022/11/22 03:06:50;;;;;;;5.10;3.10;;;12.30;77.50;;;;;;4994285;28;20041;-80
2022/11/22 03:09:16;;;;;;;4.60;2.92;;;12.30;77.50;;;;;;4976055;28;20057;-79
2022/11/22 03:11:41;;;;;;;4.95;3.10;;;12.30;77.60;;;;;;4994056;28;20124;-79
2022/11/22 03:14:07;;;;;;;5.07;2.97;;;12.30;77.60;;;;;;4993745;28;20102;-79
2022/11/22 03:16:32;;;;;;;4.65;2.97;;;12.30;77.60;;;;;;4975868;28;20041;-79
2022/11/22 03:18:58;;;;;;;4.63;2.83;;;12.20;77.60;;;;;;4993629;28;20502;-77
2022/11/22 03:21:23;;;;;;;5.07;3.20;;;12.20;77.60;;;;;;4975947;28;20037;-80
2022/11/22 03:23:49;;;;;;;4.93;2.90;;;12.30;77.60;;;;;;4976206;28;20490;-77
2022/11/22 03:26:14;;;;;;;5.80;3.13;;;12.30;77.60;;;;;;4976230;28;20030;-80
2022/11/22 03:28:40;;;;;;;4.43;2.78;;;12.20;77.60;;;;;;4993570;28;20034;-81
2022/11/22 03:31:06;;;;;;;4.78;2.90;;;12.20;77.60;;;;;;4993561;28;20077;-81
2022/11/22 03:33:33;;;;;;;4.43;2.92;;;12.20;77.60;;;;;;4995683;28;20034;-81
2022/11/22 03:35:59;;;;;;;4.50;2.78;;;12.20;77.60;;;;;;4995658;28;20514;-81
2022/11/22 03:38:24;;;;;;;4.93;2.90;;;12.20;77.60;;;;;;4977062;28;20094;-79
2022/11/22 03:40:50;;;;;;;4.47;2.80;;;12.20;77.50;;;;;;4995296;28;20437;-79
2022/11/22 03:43:15;;;;;;;4.60;2.85;;;12.20;77.50;;;;;;4974496;28;20102;-80
2022/11/22 03:45:45;;;;;;;4.07;2.70;;;12.20;77.50;;;;;;4973860;28;20117;-79
2022/11/22 03:48:10;;;;;;;4.63;2.90;;;12.20;77.60;;;;;;4956929;28;20109;-79
2022/11/22 03:50:36;;;;;;;4.85;2.70;;;12.20;77.60;;;;;;4974234;28;20462;-79
2022/11/22 03:53:01;;;;;;;5.13;2.80;;;12.30;77.60;;;;;;4973729;28;20034;-79
2022/11/22 03:55:27;;;;;;;4.10;2.80;;;12.30;77.60;;;;;;4975940;28;20662;-79
2022/11/22 03:57:53;;;;;;;4.03;2.50;;;12.20;77.60;;;;;;4974241;28;20034;-79
2022/11/22 04:00:18;;;;;;;4.90;2.63;;;12.20;77.60;;;;;;4957527;28;20027;-79
2022/11/22 04:02:44;;;;;;;4.47;2.63;;;12.20;77.60;;;;;;4957467;28;20029;-79
2022/11/22 04:05:09;;;;;;;4.55;2.78;;;12.20;77.60;;;;;;4958061;28;20530;-79
2022/11/22 04:07:35;;;;;;;4.45;2.60;;;12.20;77.50;;;;;;4956794;28;20027;-78
2022/11/22 04:10:00;;;;;;;4.70;2.83;;;12.20;77.50;;;;;;4976097;28;20426;-79
2022/11/22 04:12:28;;;;;;;4.47;2.65;;;12.20;77.60;;;;;;4976348;28;20033;-79
2022/11/22 04:15:06;;;;;;;4.38;2.67;;;12.20;77.70;;;;;;4976835;28;20037;-79
2022/11/22 04:17:44;;;;;;;5.75;2.67;;;12.20;77.70;;;;;;4977265;28;20057;-79
2022/11/22 04:23:05;;;;;;;3.97;2.45;;;12.20;77.50;;;;;;4999088;28;20041;-81
2022/11/22 04:25:32;;;;;;;4.18;2.40;;;12.30;77.40;;;;;;4998690;28;20085;-81
2022/11/22 04:27:58;;;;;;;4.05;2.40;;;12.30;77.40;;;;;;4980879;28;20094;-80
2022/11/22 04:32:44;;;;;;;3.90;2.40;;;12.30;77.40;;;;;;4998401;28;20046;-81
2022/11/22 04:33:12;;;;;;;4.18;2.50;;;12.30;77.30;;;;;;4998036;28;20077;-81
2022/11/22 04:35:38;;;;;;;3.80;2.60;;;12.30;77.20;;;;;;4978232;28;20121;-81
2022/11/22 04:38:04;;;;;;;4.07;2.45;;;12.30;77.20;;;;;;4974872;28;20026;-80
2022/11/22 04:40:30;;;;;;;3.85;2.28;;;12.30;77.10;;;;;;4979387;28;20042;-81
2022/11/22 04:45:40;;;;;;;4.22;2.60;;;12.20;77.30;;;;;;4997460;28;20509;-80
2022/11/22 04:48:05;;;;;;;4.15;2.58;;;12.20;78.00;;;;;;4996773;28;20026;-78
2022/11/22 04:53:16;;;;;;;3.85;2.30;;;12.30;77.60;;;;;;4997478;28;20105;-80
2022/11/22 04:55:44;;;;;;;3.67;2.33;;;12.20;77.60;;;;;;4979280;28;20126;-81
2022/11/22 04:58:11;;;;;;;3.97;2.45;;;12.20;77.60;;;;;;4996766;28;20030;-81
2022/11/22 05:00:36;;;;;;;3.83;2.30;;;12.20;77.60;;;;;;4992832;28;20475;-80
2022/11/22 05:03:03;;;;;;;3.72;2.20;;;12.20;77.70;;;;;;4996062;28;20062;-82
2022/11/22 05:05:28;;;;;;;3.50;2.28;;;12.20;77.80;;;;;;4993483;28;20022;-78
2022/11/22 05:07:55;;;;;;;3.53;2.22;;;12.20;77.80;;;;;;4966253;28;20102;-78
2022/11/22 05:10:21;;;;;;;3.50;2.35;;;12.20;77.80;;;;;;4970873;28;20100;-78
2022/11/22 05:12:46;;;;;;;3.60;2.28;;;12.20;77.80;;;;;;4957899;28;20035;-80
2022/11/22 05:15:12;;;;;;;3.40;2.20;;;12.20;77.90;;;;;;4986498;28;20046;-79
2022/11/22 05:17:38;;;;;;;3.15;1.95;;;12.20;77.80;;;;;;4994009;28;20027;-80
2022/11/22 05:20:05;;;;;;;3.55;2.20;;;12.20;77.90;;;;;;4993346;28;20030;-79
2022/11/22 05:25:14;;;;;;;3.92;2.00;;;12.20;77.90;;;;;;4977298;28;20409;-79
2022/11/22 05:27:40;;;;;;;3.28;2.00;;;12.20;77.90;;;;;;4977579;28;20027;-79
2022/11/22 05:30:06;;;;;;;3.03;1.92;;;12.20;77.90;;;;;;4959669;28;20117;-78
2022/11/22 05:32:32;;;;;;;3.83;2.28;;;12.20;78.00;;;;;;4967591;28;20426;-76
2022/11/22 05:34:58;;;;;;;3.20;2.00;;;12.20;78.00;;;;;;4977628;28;20433;-79
2022/11/22 05:37:24;;;;;;;3.20;1.98;;;12.20;78.00;;;;;;4979303;28;20022;-79
2022/11/22 05:39:50;;;;;;;3.22;2.00;;;12.10;78.00;;;;;;4978413;28;20486;-79
2022/11/22 05:42:15;;;;;;;4.15;2.30;;;12.20;78.10;;;;;;4997870;28;20114;-79
2022/11/22 05:44:41;;;;;;;3.20;2.10;;;12.10;78.10;;;;;;4989394;28;20027;-79
2022/11/22 05:47:07;;;;;;;3.97;2.20;;;12.20;78.10;;;;;;4967535;28;20118;-78
2022/11/22 05:49:32;;;;;;;3.30;2.00;;;12.20;78.10;;;;;;4997871;28;20037;-77
2022/11/22 05:51:58;;;;;;;3.17;2.00;;;12.20;78.10;;;;;;4986011;28;20027;-79
2022/11/22 05:54:23;;;;;;;3.25;2.10;;;12.20;78.10;;;;;;4980104;28;20108;-80
2022/11/22 05:56:49;;;;;;;3.10;2.00;;;12.20;78.20;;;;;;4999259;28;20027;-80
2022/11/22 05:59:15;;;;;;;3.03;1.90;;;12.10;78.10;;;;;;4978336;28;20025;-78
2022/11/22 06:01:40;;;;;;;3.22;2.00;;;12.10;78.10;;;;;;4995179;28;20033;-79
2022/11/22 06:04:06;;;;;;;2.90;1.98;;;12.20;78.20;;;;;;4981723;28;20022;-77
2022/11/22 06:06:31;;;;;;;2.63;1.92;;;12.20;78.10;;;;;;4990490;28;20053;-78
2022/11/22 06:08:58;;;;;;;2.85;1.70;;;12.20;78.10;;;;;;4972682;28;20026;-79
2022/11/22 06:11:25;;;;;;;3.97;1.90;;;12.20;77.90;;;;;;4974656;28;20030;-77
2022/11/22 06:13:57;;;;;;;3.22;2.03;;;12.20;77.90;;;;;;4976945;28;20054;-80
2022/11/22 06:16:23;;;;;;;;;;;12.20;77.80;;;;;;4982482;28;20035;-79
2022/11/22 06:18:49;;;;;;;3.22;1.90;;;12.20;77.80;;;;;;4975629;28;19913;-79
2022/11/22 06:21:17;;;;;;;2.45;1.63;;;12.20;77.80;;;;;;4975343;28;20106;-78
2022/11/22 06:23:43;;;;;;;3.55;1.90;;;12.20;77.60;;;;;;4975758;28;20022;-78
2022/11/22 06:26:11;;;;;;;3.15;1.83;;;12.30;77.70;;;;;;4992600;28;20030;-78
2022/11/22 06:28:38;;;;;;;2.58;1.80;;;12.20;77.60;;;;;;4995328;28;20152;-79
2022/11/22 06:31:06;;;;;;;3.22;1.88;;;12.30;77.70;;;;;;4994428;28;20109;-79
2022/11/22 06:33:32;;;;;;;2.45;1.70;;;12.20;77.80;;;;;;4977735;28;20058;-81
2022/11/22 06:36:03;;;;;;;4.80;2.08;;;12.20;77.90;;;;;;4978325;28;20037;-78
2022/11/22 06:38:28;;;;;;;2.47;1.70;;;12.20;77.90;;;;;;4995199;28;20029;-79
2022/11/22 06:40:59;;;;;;;3.42;1.80;;;12.20;78.00;;;;;;4994972;28;20030;-78
2022/11/22 06:43:27;;;;;;;2.55;1.70;;;12.20;78.00;;;;;;4994842;28;20102;-79
2022/11/22 06:45:55;;;;;;;2.83;1.63;;;12.20;78.10;;;;;;4977513;28;20588;-80
2022/11/22 06:48:21;;;;;;;11.13;2.30;;;12.20;78.10;;;;;;4977896;28;20030;-80
2022/11/22 06:50:46;;;;;;;6.13;2.17;;;12.20;77.70;;;;;;4994666;28;20037;-78
2022/11/22 06:53:12;;;;;;;8.40;2.15;;;12.10;77.70;;;;;;4993308;28;20438;-78
2022/11/22 06:55:37;;;;;;;10.68;2.40;;;12.10;77.60;;;;;;4991638;28;20026;-80
2022/11/22 06:58:03;;;;;;;12.02;3.80;;;12.10;77.60;;;;;;4992260;28;20533;-79
2022/11/22 07:00:28;;;;;;;7.40;2.55;;;12.20;77.80;;;;;;4991870;28;20110;-78
2022/11/22 07:02:54;;;;;;;9.82;2.67;;;12.10;77.80;;;;;;4993911;28;20026;-80
2022/11/22 07:05:19;;;;;;;8.68;2.33;;;12.10;77.90;;;;;;4977871;28;20057;-79
2022/11/22 07:07:45;;;;;;;9.85;2.20;;;12.10;77.90;;;;;;4996208;28;20061;-80
2022/11/22 07:10:10;;;;;;;9.35;2.40;;;12.20;78.10;;;;;;4994874;28;20065;-78
2022/11/22 07:12:36;;;;;;;8.07;2.20;;;12.10;78.00;;;;;;4993240;28;20435;-78
2022/11/22 07:15:02;;;;;;;5.13;1.90;;;12.10;78.10;;;;;;4994459;28;20042;-79
2022/11/22 07:17:27;;;;;;;5.47;1.80;;;12.10;78.10;;;;;;4994976;28;20537;-79
2022/11/22 07:19:53;;;;;;;6.88;1.90;;;12.10;78.10;;;;;;4977524;28;20034;-80
2022/11/22 07:22:18;;;;;;;5.95;1.83;;;12.10;78.10;;;;;;4994591;28;20423;-78
2022/11/22 07:24:44;;;;;;;10.48;2.70;;;12.20;78.30;;;;;;4977145;28;20497;-79
2022/11/22 07:27:09;;;;;;;8.98;1.90;;;12.10;78.20;;;;;;4977438;28;20137;-81
2022/11/22 07:29:35;;;;;;;6.35;1.80;;;12.10;78.20;;;;;;4992940;28;20026;-76
2022/11/22 07:32:00;;;;;;;5.00;1.77;;;12.10;78.20;;;;;;4975897;28;20031;-78
2022/11/22 07:34:26;;;;;;;6.30;1.95;;;12.10;78.20;;;;;;4993137;28;20023;-80
2022/11/22 07:36:51;;;;;;;8.63;2.00;;;12.10;78.20;;;;;;4994377;28;20026;-78
2022/11/22 07:39:17;;;;;;;4.43;1.73;;;12.10;78.20;;;;;;4993001;28;20073;-78
2022/11/22 07:41:42;;;;;;;5.68;2.53;;;12.10;78.20;;;;;;4975641;28;20422;-80
2022/11/22 07:44:08;;;;;;;4.82;1.80;;;12.10;78.20;;;;;;4976762;28;20486;-78
2022/11/22 07:46:33;;;;;;;5.03;2.08;;;12.20;78.20;;;;;;4993525;28;20029;-78
2022/11/22 07:49:00;;;;;;;6.32;1.85;;;12.20;78.20;;;;;;4993376;28;20045;-79
2022/11/22 07:51:26;;;;;;;5.32;1.73;;;12.20;78.20;;;;;;4975304;28;20040;-77
2022/11/22 07:53:53;;;;;;;5.00;1.88;;;12.20;78.20;;;;;;4993928;28;20034;-79
2022/11/22 07:56:19;;;;;;;5.00;1.77;;;12.20;78.20;;;;;;4976394;28;20074;-78
2022/11/22 07:58:45;;;;;;;5.90;2.05;;;12.20;78.10;;;;;;4976478;28;20490;-78
2022/11/22 08:01:13;;;;;;;5.20;1.98;;;12.20;78.00;;;;;;4993796;28;20032;-80
2022/11/22 08:03:39;;;;;;;4.30;1.63;;;12.20;78.00;;;;;;4976046;28;20022;-78
2022/11/22 08:06:07;;;;;;;5.82;2.08;;;12.20;77.90;;;;;;4975225;28;20027;-80
2022/11/22 08:08:34;;;;;;;3.92;1.90;;;12.20;77.80;;;;;;4992990;28;20027;-79
2022/11/22 08:11:00;;;;;;;4.22;2.03;;;12.20;77.70;;;;;;4975149;28;20026;-78
2022/11/22 08:13:26;;;;;;;4.38;1.88;;;12.20;77.70;;;;;;4975583;28;20050;-79
2022/11/22 08:15:51;;;;;;;4.70;2.10;;;12.30;77.60;;;;;;5039670;23;20151;-81
2022/11/22 08:18:17;;;;;;;4.70;1.80;;;12.30;77.60;;;;;;5008423;28;20093;-80
2022/11/22 08:20:43;;;;;;;3.88;1.90;;;12.40;77.60;;;;;;5013887;28;20030;-82
2022/11/22 08:23:08;;;;;;;3.63;1.65;;;12.40;77.30;;;;;;4997070;28;20018;-80
2022/11/22 08:25:34;;;;;;;4.20;1.65;;;12.40;77.10;;;;;;4995967;28;20117;-80
2022/11/22 08:27:59;;;;;;;5.32;1.80;;;12.50;77.00;;;;;;4996100;28;20053;-80
2022/11/22 08:30:25;;;;;;;3.88;2.00;;;12.50;76.90;;;;;;5004738;28;20029;-80
2022/11/22 08:32:56;;;;;;;4.07;1.60;;;12.60;76.90;;;;;;5014028;28;20025;-77
2022/11/22 08:35:22;;;;;;;6.10;1.83;;;12.60;77.30;;;;;;5013279;28;20032;-81
2022/11/22 08:37:47;;;;;;;4.40;1.70;;;12.50;76.70;;;;;;5014101;28;20072;-80
2022/11/22 08:40:13;;;;;;;4.40;1.70;;;12.60;76.70;;;;;;5013958;28;20064;-80
2022/11/22 08:42:38;;;;;;;4.28;1.73;;;12.70;76.70;;;;;;5014389;28;20017;-81
2022/11/22 08:45:05;;;;;;;4.60;1.70;;;12.60;76.60;;;;;;5032455;28;20021;-80
2022/11/22 08:47:30;;;;;;;4.65;1.83;;;12.70;76.70;;;;;;5014324;28;20025;-82
2022/11/22 08:49:56;;;;;;;2.75;1.50;;;12.70;76.70;;;;;;5031882;28;20075;-81
2022/11/22 08:52:21;;;;;;;5.55;2.53;;;12.70;76.80;;;;;;5014372;28;20113;-80
2022/11/22 08:54:47;;;;;;;3.63;1.60;;;12.70;76.70;;;;;;5014260;28;20026;-80
2022/11/22 08:57:13;;;;;;;4.85;1.60;;;12.70;76.70;;;;;;5014167;28;20572;-80
2022/11/22 08:59:38;;;;;;;4.85;1.60;;;12.80;76.40;;;;;;5016069;28;20075;-80
2022/11/22 09:02:04;;;;;;;4.60;1.63;;;12.70;76.40;;;;;;5017673;28;20489;-80
2022/11/22 09:04:29;;;;;;;2.33;1.40;;;12.80;76.50;;;;;;5017599;28;20025;-80
2022/11/22 09:06:56;;;;;;;2.67;1.55;;;12.80;76.30;;;;;;5017429;28;20396;-80
2022/11/22 09:09:21;;;;;;;4.15;1.45;;;12.80;76.20;;;;;;5035270;28;20078;-80
2022/11/22 09:11:47;;;;;;;2.38;1.60;;;12.80;76.20;;;;;;5034824;28;20119;-80
2022/11/22 09:14:12;;;;;;;3.20;1.70;;;12.90;76.00;;;;;;5017379;28;20166;-81
2022/11/22 09:16:38;;;;;;;4.80;1.65;;;12.90;76.00;;;;;;5016999;28;20060;-80
2022/11/22 09:19:03;;;;;;;3.70;1.50;;;12.90;76.00;;;;;;5017319;28;20503;-81
2022/11/22 09:21:29;;;;;;;4.00;1.70;;;12.90;76.00;;;;;;5017153;28;20518;-79
2022/11/22 09:23:54;;;;;;;2.92;1.50;;;12.90;75.70;;;;;;5016998;28;20026;-80
2022/11/22 09:26:23;;;;;;;2.55;1.50;;;12.90;76.00;;;;;;5016979;28;20047;-80
2022/11/22 09:28:49;;;;;;;3.08;1.50;;;12.80;76.20;;;;;;5017207;28;20021;-83
2022/11/22 09:31:18;;;;;;;2.85;1.50;;;12.80;76.20;;;;;;5016638;28;20048;-79
2022/11/22 09:33:44;;;;;;;2.65;1.50;;;12.90;76.30;;;;;;5016904;28;20029;-81
2022/11/22 09:36:15;;;;;;;4.70;1.60;;;12.90;76.20;;;;;;5016900;28;20059;-80
2022/11/22 09:38:41;;;;;;;3.60;1.55;;;13.00;76.20;;;;;;5016846;28;20120;-80
2022/11/22 09:41:15;;;;;;;2.67;1.38;;;13.00;76.00;;;;;;5034373;28;20117;-80
2022/11/22 09:43:47;;;;;;;2.40;1.10;;;13.00;75.90;;;;;;5034358;28;20485;-81
2022/11/22 09:46:56;;;;;;;2.53;1.38;;;13.00;76.30;;;;;;5016671;28;20095;-81
2022/11/22 09:49:49;;;;;;;3.85;1.52;;;13.10;76.20;;;;;;5027246;28;20036;-84
2022/11/22 09:52:18;;;;;;;3.22;1.42;;;13.10;76.10;;;;;;5017602;28;20038;-84
2022/11/22 09:54:50;;;;;;;2.22;1.40;;;13.10;75.90;;;;;;5012509;28;20033;-81
2022/11/22 09:57:28;;;;;;;2.28;1.48;;;13.20;75.70;;;;;;5020510;28;20394;-80
2022/11/22 10:00:05;;;;;;;2.10;1.30;;;13.20;75.50;;;;;;5009919;28;20125;-81
2022/11/22 10:02:38;;;;;;;3.88;1.67;;;13.20;75.50;;;;;;5005147;28;20021;-83
2022/11/22 10:05:16;;;;;;;4.00;1.70;;;13.30;75.50;;;;;;4998569;28;20536;-80
2022/11/22 10:07:50;;;;;;;3.17;1.70;;;13.30;75.30;;;;;;5010848;28;20049;-82
2022/11/22 10:10:25;;;;;;;3.17;1.45;;;13.40;75.20;;;;;;5000872;28;20026;-81
2022/11/22 10:12:58;;;;;;;2.88;1.20;;;13.40;74.70;;;;;;5016116;28;20397;-79
2022/11/22 10:15:35;;;;;;;2.97;1.40;;;13.30;74.70;;;;;;5009669;28;20029;-79
2022/11/22 10:18:33;;;;;;;2.63;1.25;;;13.40;75.00;;;;;;4996839;28;20085;-80
2022/11/22 10:20:59;;;;;;;2.38;1.40;;;13.40;74.80;;;;;;5003984;28;20509;-80
2022/11/22 10:23:26;;;;;;;3.38;1.30;;;13.40;74.90;;;;;;5010933;28;20060;-79
2022/11/22 10:26:13;;;;;;;2.03;1.27;;;13.40;74.90;;;;;;5009863;28;20068;-80
2022/11/22 10:28:55;;;;;;;2.42;1.40;;;13.40;75.00;;;;;;4996742;28;20329;-80
2022/11/22 10:31:35;;;;;;;3.55;1.48;;;13.40;74.90;;;;;;5002189;28;20033;-80
2022/11/22 10:34:29;;;;;;;4.65;1.38;;;13.40;75.10;;;;;;5000531;28;20552;-80
2022/11/22 10:37:13;;;;;;;3.17;1.30;;;13.40;74.90;;;;;;5009563;28;20156;-82
2022/11/22 10:39:59;;;;;;;3.85;1.67;;;13.40;75.10;;;;;;5009980;28;20155;-78
2022/11/22 10:42:51;;;;;;;2.72;1.48;;;13.50;75.00;;;;;;5000415;28;20417;-80
2022/11/22 10:45:31;;;;;;;1.73;1.10;;;13.50;74.80;;;;;;5014148;28;20030;-81
2022/11/22 10:48:25;;;;;;;2.40;1.30;;;13.60;74.70;;;;;;5032979;28;20051;-81
2022/11/22 10:50:51;;;;;;;2.33;1.08;;;13.60;74.30;;;;;;5006241;28;20026;-80
2022/11/22 10:53:33;;;;;;;3.35;1.23;;;13.60;74.60;;;;;;5013907;28;20036;-79
2022/11/22 10:56:16;;;;;;;3.40;1.38;;;13.60;74.10;;;;;;5012618;28;20481;-81
2022/11/22 10:59:18;;;;;;;2.90;1.50;;;13.60;74.10;;;;;;5014330;28;20153;-79
2022/11/22 11:02:12;;;;;;;4.03;1.73;;;13.60;74.00;;;;;;5012913;28;20056;-79
2022/11/22 11:04:40;;;;;;;5.65;1.88;;;13.70;73.80;;;;;;5015416;28;20029;-80
2022/11/22 11:07:14;;;;;;;3.25;1.42;;;13.70;74.00;;;;;;5008790;28;20021;-80
2022/11/22 11:09:44;;;;;;;2.55;1.67;;;13.70;73.80;;;;;;5011357;28;20030;-80
2022/11/22 11:12:21;;;;;;;3.55;1.70;;;13.70;73.90;;;;;;5000951;28;20160;-80
2022/11/22 11:14:52;;;;;;;4.18;1.50;;;13.70;73.90;;;;;;5003834;28;20064;-79
2022/11/22 11:17:24;;;;;;;3.15;1.50;;;13.70;73.80;;;;;;5016994;28;20029;-78
2022/11/22 11:19:53;;;;;;;3.70;1.60;;;13.70;74.30;;;;;;4996116;28;20448;-82
2022/11/22 11:22:22;;;;;;;2.80;1.30;;;13.70;73.70;;;;;;5012926;28;20018;-80
2022/11/22 11:24:47;;;;;;;3.53;1.40;;;13.80;73.80;;;;;;4999051;28;20067;-79
2022/11/22 11:27:15;;;;;;;3.30;1.55;;;13.80;73.70;;;;;;5004007;28;20021;-79
2022/11/22 11:29:43;;;;;;;3.20;1.40;;;13.80;73.70;;;;;;4995749;28;20025;-80
2022/11/22 11:32:12;;;;;;;3.17;1.60;;;13.70;74.90;;;;;;5010277;28;20030;-79
2022/11/22 11:34:40;;;;;;;2.92;1.50;;;13.80;75.00;;;;;;5003258;28;20184;-81
2022/11/22 11:37:25;;;;;;;3.17;1.67;;;13.80;75.00;;;;;;5013420;28;20464;-80
2022/11/22 11:39:50;;;;;;;4.10;1.70;;;13.80;75.30;;;;;;5005513;28;20533;-80
2022/11/22 11:42:32;;;;;;;4.00;1.42;;;13.80;74.50;;;;;;5012622;28;20030;-80
2022/11/22 11:45:20;;;;;;;3.25;1.50;;;13.80;73.90;;;;;;5012678;28;20425;-79
2022/11/22 11:47:46;;;;;;;3.28;1.58;;;13.90;74.50;;;;;;5008127;28;20088;-79
2022/11/22 11:50:23;;;;;;;4.43;1.77;;;13.90;74.40;;;;;;5002945;28;20084;-79
2022/11/22 11:52:55;;;;;;;3.60;1.60;;;13.90;73.50;;;;;;5016757;28;20057;-79
2022/11/22 11:55:21;;;;;;;;;;;13.90;73.30;;;;;;5009155;28;20037;-81
2022/11/22 11:57:49;;;;;;;2.65;1.40;;;13.90;73.30;;;;;;5013564;28;19904;-80
2022/11/22 12:00:26;;;;;;;3.60;1.52;;;13.90;73.30;;;;;;5012420;28;20037;-79
2022/11/22 12:03:00;;;;;;;2.75;1.50;;;13.90;73.40;;;;;;5016568;28;20021;-79
2022/11/22 12:05:29;;;;;;;2.67;1.30;;;13.90;73.50;;;;;;5014599;28;20555;-80
2022/11/22 12:07:55;;;;;;;2.70;1.45;;;13.80;73.60;;;;;;5014324;28;20026;-79
2022/11/22 12:10:54;;;;;;;3.10;1.40;;;13.80;73.60;;;;;;5009200;28;20025;-77
2022/11/22 12:13:28;;;;;;;2.80;1.27;;;13.80;73.70;;;;;;5027809;28;20052;-81
2022/11/22 12:16:26;;;;;;;2.90;1.30;;;13.80;73.80;;;;;;5007131;28;20504;-82
2022/11/22 12:19:14;;;;;;;2.72;1.20;;;13.80;73.90;;;;;;5000201;28;20041;-80
2022/11/22 12:21:56;;;;;;;2.05;1.30;;;13.80;73.90;;;;;;5003244;28;20029;-80
2022/11/22 12:24:44;;;;;;;3.60;1.50;;;13.80;73.90;;;;;;4998799;28;20034;-79
2022/11/22 12:27:10;;;;;;;3.75;1.30;;;13.80;74.00;;;;;;5006450;28;20124;-80
2022/11/22 12:29:39;;;;;;;3.50;1.30;;;13.80;73.90;;;;;;4994411;28;20557;-79
2022/11/22 12:32:17;;;;;;;3.65;1.55;;;13.80;74.10;;;;;;5003590;28;20453;-79
2022/11/22 12:35:04;;;;;;;4.28;1.50;;;13.80;74.20;;;;;;5017691;28;20029;-83
2022/11/22 12:37:37;;;;;;;2.50;1.20;;;13.80;74.10;;;;;;5012217;28;20029;-80
2022/11/22 12:40:11;;;;;;;2.38;1.30;;;13.80;74.10;;;;;;5009240;28;20026;-80
2022/11/22 12:42:46;;;;;;;3.38;1.23;;;13.80;74.50;;;;;;4998440;28;20561;-81
2022/11/22 12:45:27;;;;;;;3.67;1.30;;;13.80;74.30;;;;;;5028647;28;20026;-79
2022/11/22 12:47:56;;;;;;;1.88;1.20;;;13.80;74.70;;;;;;5027520;28;20429;-80
2022/11/22 12:50:40;;;;;;;2.25;1.38;;;13.70;74.50;;;;;;5013822;28;20026;-79
2022/11/22 12:53:15;;;;;;;3.20;1.38;;;13.70;74.30;;;;;;5012794;28;20057;-80
2022/11/22 12:56:07;;;;;;;2.90;1.27;;;13.60;74.50;;;;;;4997889;28;20046;-82
2022/11/22 12:59:00;;;;;;;2.53;1.20;;;13.60;74.70;;;;;;5013412;28;20421;-81
2022/11/22 13:01:41;;;;;;;1.75;1.13;;;13.50;74.90;;;;;;4999139;28;20034;-81
2022/11/22 13:04:09;;;;;;;;;;;13.50;75.10;;;;;;5016479;28;20496;-80
2022/11/22 13:06:55;;;;;;;2.78;1.27;;;13.40;75.20;;;;;;5015892;28;19966;-81
2022/11/22 13:09:30;;;;;;;3.65;1.55;;;13.40;75.40;;;;;;5017569;28;20111;-81
2022/11/22 13:12:04;;;;;;;2.40;1.40;;;13.40;75.40;;;;;;5028076;28;20033;-81